Time;durP1;ratioP1;P1;durP2;ratioP2;P2;SDS_P1;SDS_P2;PMS_P1;PMS_P2;Temp;Humidity;BMP_temperature;BMP_pressure;BME280_temperature;BME280_humidity;BME280_pressure;Samples;Min_cycle;Max_cycle;Signal;HPM_P1;HPM_P2
2022/05/02 00:00:41;;;;;;;;;41.00;31.00;;;;;;;;5016795;28;45421;-65
2022/05/02 00:03:06;;;;;;;;;36.50;33.25;;;;;;;;5016066;28;45914;-67
2022/05/02 00:05:31;;;;;;;;;36.75;32.50;;;;;;;;5016913;28;45496;-67
2022/05/02 00:07:57;;;;;;;;;31.75;30.75;;;;;;;;5017070;28;45456;-67
2022/05/02 00:10:22;;;;;;;;;36.75;31.50;;;;;;;;5016930;28;45450;-67
2022/05/02 00:12:47;;;;;;;;;33.00;30.50;;;;;;;;5016796;28;46118;-67
2022/05/02 00:15:13;;;;;;;;;35.25;30.75;;;;;;;;5016615;28;45473;-68
2022/05/02 00:17:56;;;;;;;;;40.25;33.00;;;;;;;;5017161;28;45497;-68
2022/05/02 00:20:32;;;;;;;;;39.50;33.50;;;;;;;;5017285;28;45402;-67
2022/05/02 00:23:00;;;;;;;;;35.25;33.00;;;;;;;;5016694;28;45331;-68
2022/05/02 00:25:25;;;;;;;;;37.25;31.00;;;;;;;;5016785;28;45475;-67
2022/05/02 00:27:51;;;;;;;;;32.25;29.50;;;;;;;;5016869;28;45449;-67
2022/05/02 00:30:17;;;;;;;;;29.75;28.75;;;;;;;;5017165;28;45456;-67
2022/05/02 00:32:43;;;;;;;;;32.25;29.25;;;;;;;;5016619;28;45378;-68
2022/05/02 00:35:09;;;;;;;;;30.50;29.50;;;;;;;;5016675;28;45532;-68
2022/05/02 00:37:36;;;;;;;;;35.25;31.75;;;;;;;;5017131;28;45338;-67
2022/05/02 00:40:01;;;;;;;;;34.00;30.75;;;;;;;;5016887;28;45509;-67
2022/05/02 00:42:27;;;;;;;;;32.25;30.50;;;;;;;;5016366;28;45433;-68
2022/05/02 00:44:52;;;;;;;;;32.50;31.25;;;;;;;;5016565;28;45537;-67
2022/05/02 00:47:20;;;;;;;;;38.00;32.75;;;;;;;;5018225;28;45450;-67
2022/05/02 00:49:46;;;;;;;;;39.50;33.50;;;;;;;;5020338;28;45554;-67
2022/05/02 00:52:11;;;;;;;;;35.75;31.50;;;;;;;;5019834;28;45340;-68
2022/05/02 00:54:39;;;;;;;;;41.25;33.00;;;;;;;;5020373;28;45454;-67
2022/05/02 00:57:05;;;;;;;;;34.50;32.00;;;;;;;;5020378;28;45223;-67
2022/05/02 00:59:30;;;;;;;;;35.75;31.75;;;;;;;;5020089;28;45465;-67
2022/05/02 01:01:55;;;;;;;;;31.00;30.00;;;;;;;;5019826;28;45957;-67
2022/05/02 01:04:21;;;;;;;;;35.25;30.50;;;;;;;;5019894;28;45481;-67
2022/05/02 01:09:32;;;;;;;;;34.50;29.25;;;;;;;;5019936;28;45350;-67
2022/05/02 01:11:57;;;;;;;;;36.50;32.25;;;;;;;;5019460;28;45469;-67
2022/05/02 01:14:22;;;;;;;;;34.75;31.00;;;;;;;;5019341;28;45402;-67
2022/05/02 01:16:48;;;;;;;;;29.25;28.25;;;;;;;;5019646;28;45450;-67
2022/05/02 01:19:14;;;;;;;;;31.00;29.00;;;;;;;;5019580;28;45532;-67
2022/05/02 01:21:42;;;;;;;;;35.25;30.25;;;;;;;;5019773;28;45482;-67
2022/05/02 01:24:08;;;;;;;;;40.25;31.50;;;;;;;;5018511;28;45461;-67
2022/05/02 01:26:33;;;;;;;;;36.75;31.75;;;;;;;;5019522;28;45274;-68
2022/05/02 01:28:59;;;;;;;;;31.00;28.50;;;;;;;;5019884;28;45412;-67
2022/05/02 01:31:25;;;;;;;;;32.75;28.75;;;;;;;;5017992;28;45566;-67
2022/05/02 01:33:51;;;;;;;;;28.00;27.25;;;;;;;;5019081;28;45823;-68
2022/05/02 01:36:17;;;;;;;;;28.75;28.25;;;;;;;;5019318;28;45403;-68
2022/05/02 01:38:43;;;;;;;;;29.25;27.00;;;;;;;;5019467;28;45615;-67
2022/05/02 01:41:09;;;;;;;;;28.75;26.50;;;;;;;;5019309;28;46031;-67
2022/05/02 01:43:36;;;;;;;;;33.00;28.75;;;;;;;;5019203;28;45465;-67
2022/05/02 01:46:03;;;;;;;;;25.75;24.50;;;;;;;;5019215;28;45342;-67
2022/05/02 01:48:28;;;;;;;;;30.75;29.25;;;;;;;;5019234;28;45501;-68
2022/05/02 01:50:54;;;;;;;;;27.50;25.50;;;;;;;;5018629;28;45485;-68
2022/05/02 01:53:20;;;;;;;;;29.50;27.50;;;;;;;;5019200;28;45339;-67
2022/05/02 01:55:45;;;;;;;;;30.00;25.50;;;;;;;;5019293;28;45224;-67
2022/05/02 01:58:11;;;;;;;;;28.25;25.75;;;;;;;;5018624;28;45477;-66
2022/05/02 02:00:36;;;;;;;;;28.25;26.25;;;;;;;;5018748;28;45170;-66
2022/05/02 02:03:02;;;;;;;;;26.00;24.75;;;;;;;;5018933;28;45397;-67
2022/05/02 02:08:11;;;;;;;;;26.00;25.00;;;;;;;;5019364;28;45485;-67
2022/05/02 02:10:36;;;;;;;;;27.00;24.75;;;;;;;;5018616;28;45951;-66
2022/05/02 02:13:02;;;;;;;;;27.00;25.25;;;;;;;;5018871;28;45226;-66
2022/05/02 02:15:27;;;;;;;;;27.75;27.00;;;;;;;;5018758;28;45386;-67
2022/05/02 02:17:53;;;;;;;;;31.75;27.75;;;;;;;;5019172;28;45184;-67
2022/05/02 02:20:18;;;;;;;;;28.50;25.50;;;;;;;;5018578;28;45549;-67
2022/05/02 02:22:43;;;;;;;;;29.00;27.50;;;;;;;;5018703;28;45520;-67
2022/05/02 02:25:09;;;;;;;;;25.75;23.25;;;;;;;;5019050;28;45254;-66
2022/05/02 02:27:34;;;;;;;;;29.00;27.50;;;;;;;;5018978;28;45523;-67
2022/05/02 02:29:59;;;;;;;;;31.25;26.25;;;;;;;;5018459;28;45507;-66
2022/05/02 02:32:25;;;;;;;;;29.50;27.00;;;;;;;;5018407;28;45406;-66
2022/05/02 02:34:51;;;;;;;;;31.50;27.50;;;;;;;;5018389;28;45248;-67
2022/05/02 02:37:16;;;;;;;;;25.00;25.00;;;;;;;;5018579;28;45460;-68
2022/05/02 02:39:42;;;;;;;;;28.50;28.00;;;;;;;;5018580;28;46137;-66
2022/05/02 02:42:07;;;;;;;;;28.75;25.75;;;;;;;;5018161;28;45370;-67
2022/05/02 02:44:33;;;;;;;;;26.75;25.00;;;;;;;;5018396;28;45462;-67
2022/05/02 02:46:58;;;;;;;;;26.50;25.25;;;;;;;;5018536;28;45533;-66
2022/05/02 02:49:23;;;;;;;;;30.25;26.50;;;;;;;;5018223;28;45635;-67
2022/05/02 02:51:49;;;;;;;;;30.00;28.00;;;;;;;;5018173;28;45485;-66
2022/05/02 02:54:14;;;;;;;;;31.50;26.75;;;;;;;;5018447;28;45490;-67
2022/05/02 02:56:39;;;;;;;;;30.50;26.00;;;;;;;;5018387;28;45335;-66
2022/05/02 02:59:05;;;;;;;;;28.75;27.00;;;;;;;;5018039;28;45378;-66
2022/05/02 03:01:30;;;;;;;;;29.75;27.00;;;;;;;;5018041;28;45469;-66
2022/05/02 03:03:56;;;;;;;;;27.50;26.75;;;;;;;;5018138;28;45373;-66
2022/05/02 03:06:21;;;;;;;;;25.25;23.00;;;;;;;;5018044;28;45330;-66
2022/05/02 03:08:47;;;;;;;;;31.00;28.00;;;;;;;;5017846;28;45940;-67
2022/05/02 03:11:13;;;;;;;;;25.75;24.25;;;;;;;;5017647;28;45541;-66
2022/05/02 03:13:38;;;;;;;;;30.00;27.25;;;;;;;;5018044;28;45434;-67
2022/05/02 03:16:04;;;;;;;;;27.00;25.50;;;;;;;;5018001;28;45176;-67
2022/05/02 03:18:31;;;;;;;;;27.25;25.00;;;;;;;;5017763;28;45984;-66
2022/05/02 03:20:56;;;;;;;;;26.00;23.75;;;;;;;;5017726;28;45456;-67
2022/05/02 03:23:23;;;;;;;;;26.25;23.75;;;;;;;;5017799;28;45493;-67
2022/05/02 03:25:48;;;;;;;;;27.50;24.50;;;;;;;;5017956;28;45386;-67
2022/05/02 03:28:13;;;;;;;;;30.00;27.50;;;;;;;;5017754;28;45889;-67
2022/05/02 03:30:39;;;;;;;;;30.75;29.25;;;;;;;;5017627;28;45463;-67
2022/05/02 03:33:04;;;;;;;;;26.50;25.75;;;;;;;;5017643;28;45407;-67
2022/05/02 03:35:30;;;;;;;;;25.50;25.00;;;;;;;;5017832;28;45342;-67
2022/05/02 03:37:56;;;;;;;;;27.75;24.75;;;;;;;;5017341;28;45193;-67
2022/05/02 03:40:21;;;;;;;;;23.00;22.00;;;;;;;;5017484;28;45484;-67
2022/05/02 03:42:47;;;;;;;;;24.75;23.75;;;;;;;;5017756;28;45525;-67
2022/05/02 03:45:12;;;;;;;;;26.25;25.00;;;;;;;;5017637;28;45212;-68
2022/05/02 03:47:38;;;;;;;;;25.00;23.50;;;;;;;;5017352;28;45271;-67
2022/05/02 03:50:03;;;;;;;;;28.00;24.50;;;;;;;;5017293;28;45426;-67
2022/05/02 03:52:29;;;;;;;;;25.25;23.25;;;;;;;;5017479;28;45450;-68
2022/05/02 03:54:54;;;;;;;;;22.25;20.25;;;;;;;;5017502;28;45525;-67
2022/05/02 03:57:19;;;;;;;;;28.75;25.00;;;;;;;;5017215;28;46057;-68
2022/05/02 03:59:46;;;;;;;;;30.25;27.75;;;;;;;;5017547;28;45464;-67
2022/05/02 04:02:12;;;;;;;;;26.50;24.25;;;;;;;;5016022;28;45426;-66
2022/05/02 04:04:37;;;;;;;;;24.50;24.00;;;;;;;;5017414;28;45505;-66
2022/05/02 04:07:02;;;;;;;;;22.00;20.50;;;;;;;;5016924;28;45333;-67
2022/05/02 04:09:28;;;;;;;;;25.50;23.25;;;;;;;;5017153;28;45520;-67
2022/05/02 04:11:53;;;;;;;;;25.50;23.75;;;;;;;;5017294;28;45318;-68
2022/05/02 04:14:19;;;;;;;;;26.50;25.25;;;;;;;;5017634;28;45434;-67
2022/05/02 04:16:44;;;;;;;;;24.75;23.00;;;;;;;;5016962;28;46103;-68
2022/05/02 04:19:09;;;;;;;;;30.75;25.75;;;;;;;;5017099;28;45677;-68
2022/05/02 04:21:35;;;;;;;;;27.25;22.50;;;;;;;;5017316;28;45433;-67
2022/05/02 04:24:00;;;;;;;;;23.25;21.75;;;;;;;;5020888;28;45794;-67
2022/05/02 04:26:25;;;;;;;;;23.25;21.00;;;;;;;;5020249;28;45476;-66
2022/05/02 04:28:51;;;;;;;;;27.75;22.00;;;;;;;;5020321;28;45473;-67
2022/05/02 04:31:16;;;;;;;;;25.50;22.00;;;;;;;;5020931;28;45460;-67
2022/05/02 04:33:41;;;;;;;;;23.00;22.00;;;;;;;;5020595;28;45462;-67
2022/05/02 04:36:07;;;;;;;;;23.00;22.25;;;;;;;;5020241;28;45862;-67
2022/05/02 04:38:33;;;;;;;;;22.75;22.00;;;;;;;;5020240;28;45252;-67
2022/05/02 04:40:58;;;;;;;;;25.50;24.50;;;;;;;;5019149;28;46206;-67
2022/05/02 04:43:24;;;;;;;;;23.75;23.50;;;;;;;;5019118;28;45325;-70
2022/05/02 04:45:49;;;;;;;;;25.25;23.25;;;;;;;;5018982;28;45994;-67
2022/05/02 04:48:15;;;;;;;;;21.25;21.00;;;;;;;;5018425;28;45508;-66
2022/05/02 04:50:40;;;;;;;;;28.00;26.75;;;;;;;;5018545;28;45509;-68
2022/05/02 04:53:05;;;;;;;;;25.75;23.00;;;;;;;;5018356;28;45457;-67
2022/05/02 04:55:31;;;;;;;;;26.25;24.25;;;;;;;;5018235;28;46119;-66
2022/05/02 04:57:56;;;;;;;;;27.00;24.25;;;;;;;;5018284;28;45524;-67
2022/05/02 05:00:22;;;;;;;;;24.25;23.75;;;;;;;;5018544;28;45477;-67
2022/05/02 05:02:47;;;;;;;;;32.00;28.75;;;;;;;;5017265;28;45470;-66
2022/05/02 05:05:12;;;;;;;;;29.75;27.25;;;;;;;;5017883;28;45987;-67
2022/05/02 05:07:38;;;;;;;;;41.00;34.75;;;;;;;;5018097;28;45418;-67
2022/05/02 05:10:05;;;;;;;;;41.50;32.00;;;;;;;;5018195;28;45833;-67
2022/05/02 05:12:49;;;;;;;;;44.00;35.50;;;;;;;;5015830;28;45702;-66
2022/05/02 05:18:23;;;;;;;;;23.75;22.00;;;;;;;;5016237;28;45459;-66
2022/05/02 05:20:59;;;;;;;;;22.50;21.50;;;;;;;;5018240;28;45425;-66
2022/05/02 05:23:30;;;;;;;;;23.75;23.00;;;;;;;;5018100;28;45459;-67
2022/05/02 05:26:14;;;;;;;;;26.25;22.75;;;;;;;;5015759;28;46274;-67
2022/05/02 05:28:54;;;;;;;;;23.50;21.75;;;;;;;;5016354;28;45537;-66
2022/05/02 05:31:29;;;;;;;;;26.75;23.00;;;;;;;;5016686;28;46017;-67
2022/05/02 05:34:06;;;;;;;;;33.00;25.00;;;;;;;;5015322;28;45458;-67
2022/05/02 05:36:35;;;;;;;;;27.75;23.75;;;;;;;;5015209;28;45637;-67
2022/05/02 05:39:05;;;;;;;;;29.75;25.75;;;;;;;;5018394;28;45468;-67
2022/05/02 05:41:49;;;;;;;;;30.75;26.00;;;;;;;;5016081;28;45349;-67
2022/05/02 05:44:29;;;;;;;;;27.25;25.00;;;;;;;;5019405;28;45573;-68
2022/05/02 05:47:01;;;;;;;;;28.50;25.50;;;;;;;;5018960;28;45427;-68
2022/05/02 05:49:36;;;;;;;;;28.00;25.50;;;;;;;;5019466;28;45445;-68
2022/05/02 05:52:20;;;;;;;;;26.75;24.75;;;;;;;;5018581;28;45464;-67
2022/05/02 05:54:55;;;;;;;;;27.00;23.00;;;;;;;;5019275;28;45336;-67
2022/05/02 05:57:30;;;;;;;;;41.50;33.50;;;;;;;;5019143;28;46485;-68
2022/05/02 06:00:01;;;;;;;;;31.75;27.00;;;;;;;;5016419;28;45502;-68
2022/05/02 06:02:50;;;;;;;;;29.75;27.75;;;;;;;;5014684;28;45712;-67
2022/05/02 06:05:15;;;;;;;;;39.75;34.25;;;;;;;;5036497;28;45623;-67
2022/05/02 06:07:42;;;;;;;;;34.50;31.00;;;;;;;;5018488;28;45948;-68
2022/05/02 06:10:09;;;;;;;;;32.75;24.75;;;;;;;;5019372;28;45295;-67
2022/05/02 06:12:37;;;;;;;;;28.25;24.00;;;;;;;;5018223;28;45521;-67
2022/05/02 06:20:38;;;;;;;;;25.25;24.25;;;;;;;;5018053;28;45405;-67
2022/05/02 06:23:07;;;;;;;;;20.75;17.75;;;;;;;;5017760;28;45574;-70
2022/05/02 06:25:32;;;;;;;;;28.50;25.25;;;;;;;;5017093;28;45466;-68
2022/05/02 06:27:58;;;;;;;;;28.25;26.00;;;;;;;;5016765;28;45830;-69
2022/05/02 06:30:23;;;;;;;;;28.00;24.00;;;;;;;;5016701;28;45346;-69
2022/05/02 06:32:51;;;;;;;;;24.50;21.00;;;;;;;;5014326;28;45449;-67
2022/05/02 06:35:17;;;;;;;;;25.50;23.00;;;;;;;;5017013;28;45514;-66
2022/05/02 06:37:45;;;;;;;;;26.25;24.50;;;;;;;;5016721;28;45432;-67
2022/05/02 06:40:18;;;;;;;;;33.25;26.50;;;;;;;;5012602;28;46100;-67
2022/05/02 06:43:02;;;;;;;;;28.00;26.00;;;;;;;;5017614;28;45322;-67
2022/05/02 06:45:40;;;;;;;;;24.25;23.50;;;;;;;;5018157;28;45465;-68
2022/05/02 06:48:22;;;;;;;;;31.75;28.50;;;;;;;;5018579;28;45349;-67
2022/05/02 06:50:53;;;;;;;;;29.50;29.25;;;;;;;;5017860;28;45426;-67
2022/05/02 06:53:27;;;;;;;;;33.50;28.00;;;;;;;;5017551;28;45426;-67
2022/05/02 06:55:55;;;;;;;;;29.50;28.25;;;;;;;;5017592;28;45679;-67
2022/05/02 06:58:45;;;;;;;;;35.75;31.00;;;;;;;;5017559;28;45489;-67
2022/05/02 07:01:16;;;;;;;;;30.75;28.50;;;;;;;;5016371;28;45457;-66
2022/05/02 07:04:00;;;;;;;;;31.75;28.50;;;;;;;;5014213;28;45493;-66
2022/05/02 07:06:25;;;;;;;;;31.50;29.00;;;;;;;;5014599;28;45446;-68
2022/05/02 07:08:54;;;;;;;;;30.75;29.75;;;;;;;;5016475;28;46695;-66
2022/05/02 07:11:21;;;;;;;;;28.50;27.00;;;;;;;;4997548;28;45470;-68
2022/05/02 07:14:13;;;;;;;;;33.25;30.50;;;;;;;;4978067;27;45670;-67
2022/05/02 07:16:44;;;;;;;;;27.75;24.75;;;;;;;;5012895;28;45424;-68
2022/05/02 07:19:24;;;;;;;;;31.25;29.50;;;;;;;;5037477;28;46151;-68
2022/05/02 07:22:11;;;;;;;;;29.75;27.00;;;;;;;;5036582;28;45485;-67
2022/05/02 07:24:40;;;;;;;;;26.75;25.25;;;;;;;;5036252;28;45489;-67
2022/05/02 07:27:19;;;;;;;;;35.25;31.00;;;;;;;;5037452;28;45429;-67
2022/05/02 07:29:46;;;;;;;;;29.00;28.50;;;;;;;;5036808;28;45785;-67
2022/05/02 07:32:13;;;;;;;;;33.00;30.75;;;;;;;;5037985;28;45568;-68
2022/05/02 07:34:40;;;;;;;;;33.00;31.00;;;;;;;;5037127;28;45581;-69
2022/05/02 07:37:05;;;;;;;;;31.75;28.25;;;;;;;;5036572;28;45452;-67
2022/05/02 07:39:31;;;;;;;;;29.00;28.00;;;;;;;;5036209;28;46065;-67
2022/05/02 07:41:59;;;;;;;;;32.50;26.50;;;;;;;;5036378;28;45399;-67
2022/05/02 07:44:28;;;;;;;;;33.75;31.00;;;;;;;;5036624;28;45439;-66
2022/05/02 07:46:55;;;;;;;;;29.75;27.75;;;;;;;;5036482;27;45182;-66
2022/05/02 07:49:26;;;;;;;;;29.50;26.75;;;;;;;;5036442;28;45537;-67
2022/05/02 07:51:51;;;;;;;;;31.25;27.50;;;;;;;;5034043;28;45221;-66
2022/05/02 07:54:27;;;;;;;;;27.25;26.00;;;;;;;;5036738;28;45468;-67
2022/05/02 07:56:57;;;;;;;;;33.50;29.75;;;;;;;;5037381;28;45475;-67
2022/05/02 07:59:29;;;;;;;;;28.75;24.25;;;;;;;;5037080;28;45484;-67
2022/05/02 08:01:54;;;;;;;;;32.00;29.00;;;;;;;;5037221;28;45334;-67
2022/05/02 08:04:22;;;;;;;;;33.50;29.75;;;;;;;;5036829;28;45414;-67
2022/05/02 08:07:06;;;;;;;;;29.25;27.00;;;;;;;;5037170;28;45453;-66
2022/05/02 08:09:31;;;;;;;;;33.75;28.50;;;;;;;;5036941;28;45539;-66
2022/05/02 08:12:16;;;;;;;;;31.75;30.25;;;;;;;;5036872;28;45566;-68
2022/05/02 08:15:00;;;;;;;;;33.75;29.25;;;;;;;;5036959;28;45383;-68
2022/05/02 08:17:34;;;;;;;;;30.25;28.25;;;;;;;;5037221;28;45469;-69
2022/05/02 08:20:18;;;;;;;;;36.25;32.00;;;;;;;;5035242;28;45645;-70
2022/05/02 08:28:31;;;;;;;;;41.75;33.75;;;;;;;;5036682;28;45831;-68
2022/05/02 08:31:01;;;;;;;;;42.00;34.50;;;;;;;;5036605;28;46167;-68
2022/05/02 08:33:29;;;;;;;;;28.25;26.00;;;;;;;;5036988;28;45303;-66
2022/05/02 08:36:24;;;;;;;;;23.75;21.75;;;;;;;;5038127;28;45427;-68
2022/05/02 08:38:49;;;;;;;;;33.50;31.50;;;;;;;;5033388;28;45460;-68
2022/05/02 08:41:25;;;;;;;;;40.25;33.00;;;;;;;;5038062;28;45584;-68
2022/05/02 08:43:51;;;;;;;;;37.75;33.50;;;;;;;;5035113;28;45304;-69
2022/05/02 08:46:25;;;;;;;;;33.25;29.75;;;;;;;;5035640;28;45403;-68
2022/05/02 08:52:00;;;;;;;;;28.75;28.75;;;;;;;;5036645;28;45820;-67
2022/05/02 08:54:44;;;;;;;;;35.75;32.25;;;;;;;;5037018;28;45232;-67
2022/05/02 08:57:19;;;;;;;;;44.75;36.00;;;;;;;;5037058;28;45268;-67
2022/05/02 09:00:05;;;;;;;;;39.75;33.75;;;;;;;;5036387;28;45596;-67
2022/05/02 09:02:49;;;;;;;;;32.75;30.50;;;;;;;;5035982;28;45501;-68
2022/05/02 09:05:38;;;;;;;;;37.75;32.50;;;;;;;;5036297;28;45350;-68
2022/05/02 09:08:08;;;;;;;;;32.75;30.00;;;;;;;;5037001;28;45551;-68
2022/05/02 09:10:43;;;;;;;;;38.00;32.50;;;;;;;;5039719;28;45319;-68
2022/05/02 09:13:30;;;;;;;;;32.50;27.00;;;;;;;;5039335;28;46148;-68
2022/05/02 09:16:10;;;;;;;;;34.75;30.75;;;;;;;;5039818;28;45465;-69
2022/05/02 09:19:02;;;;;;;;;36.50;30.75;;;;;;;;5039388;28;45407;-69
2022/05/02 09:21:33;;;;;;;;;34.75;32.00;;;;;;;;5031071;28;45454;-68
2022/05/02 09:24:19;;;;;;;;;69.75;56.50;;;;;;;;5039529;28;45352;-68
2022/05/02 09:26:48;;;;;;;;;47.75;40.00;;;;;;;;5039214;28;45440;-68
2022/05/02 09:29:31;;;;;;;;;40.50;33.25;;;;;;;;5039158;28;45358;-68
2022/05/02 09:32:06;;;;;;;;;34.50;29.25;;;;;;;;5039319;28;45372;-68
2022/05/02 09:34:40;;;;;;;;;26.00;25.75;;;;;;;;5038887;28;46210;-68
2022/05/02 09:37:06;;;;;;;;;28.25;24.50;;;;;;;;5038859;28;45331;-68
2022/05/02 09:39:41;;;;;;;;;24.75;23.75;;;;;;;;5038756;28;45533;-68
2022/05/02 09:42:12;;;;;;;;;26.00;23.75;;;;;;;;5039023;28;45477;-68
2022/05/02 09:50:16;;;;;;;;;34.25;31.75;;;;;;;;5039022;28;45506;-68
2022/05/02 09:53:00;;;;;;;;;24.00;23.00;;;;;;;;5038975;28;45235;-68
2022/05/02 09:58:31;;;;;;;;;26.25;25.25;;;;;;;;5038628;28;45448;-68
2022/05/02 10:01:11;;;;;;;;;33.75;30.25;;;;;;;;5038359;28;45306;-68
2022/05/02 10:03:38;;;;;;;;;27.25;26.00;;;;;;;;5038560;28;45435;-68
2022/05/02 10:06:04;;;;;;;;;49.50;38.25;;;;;;;;5038499;28;45295;-68
2022/05/02 10:08:38;;;;;;;;;42.75;35.75;;;;;;;;5038401;28;45494;-68
2022/05/02 10:11:12;;;;;;;;;45.75;37.25;;;;;;;;5038338;28;45476;-68
2022/05/02 10:13:48;;;;;;;;;36.75;30.25;;;;;;;;5038443;28;45359;-67
2022/05/02 10:16:36;;;;;;;;;26.00;25.75;;;;;;;;5038124;28;45424;-70
2022/05/02 10:19:05;;;;;;;;;26.50;25.00;;;;;;;;5037751;28;45387;-69
2022/05/02 10:21:36;;;;;;;;;29.50;25.25;;;;;;;;5038379;28;45534;-68
2022/05/02 10:24:04;;;;;;;;;33.50;30.00;;;;;;;;5038489;28;45861;-68
2022/05/02 10:26:31;;;;;;;;;34.75;30.50;;;;;;;;5038030;28;45543;-71
2022/05/02 10:29:15;;;;;;;;;46.25;38.25;;;;;;;;5037749;28;45554;-68
2022/05/02 10:31:43;;;;;;;;;37.75;33.00;;;;;;;;5037756;28;45449;-68
2022/05/02 10:34:09;;;;;;;;;36.25;32.25;;;;;;;;5037630;28;45461;-68
2022/05/02 10:36:39;;;;;;;;;50.75;42.25;;;;;;;;5032328;28;46023;-68
2022/05/02 10:39:23;;;;;;;;;55.25;44.00;;;;;;;;5035758;28;45500;-71
2022/05/02 10:41:51;;;;;;;;;52.75;44.25;;;;;;;;5035036;28;45458;-67
2022/05/02 10:44:17;;;;;;;;;26.25;23.75;;;;;;;;5036796;28;45501;-68
2022/05/02 10:46:45;;;;;;;;;23.25;20.75;;;;;;;;5036551;28;46548;-68
2022/05/02 10:49:13;;;;;;;;;24.25;22.50;;;;;;;;5036358;28;45281;-68
2022/05/02 10:51:51;;;;;;;;;25.00;21.75;;;;;;;;5036658;28;45451;-67
2022/05/02 10:54:28;;;;;;;;;21.75;21.50;;;;;;;;5036888;28;45466;-67
2022/05/02 10:57:02;;;;;;;;;28.25;26.00;;;;;;;;5036796;28;46170;-68
2022/05/02 10:59:29;;;;;;;;;39.25;33.75;;;;;;;;5037972;28;45311;-68
2022/05/02 11:02:12;;;;;;;;;47.25;39.00;;;;;;;;5037896;28;45429;-68
2022/05/02 11:05:01;;;;;;;;;30.50;28.50;;;;;;;;5037972;28;45306;-68
2022/05/02 11:07:35;;;;;;;;;36.00;32.25;;;;;;;;5037391;28;46227;-67
2022/05/02 11:10:07;;;;;;;;;32.50;30.25;;;;;;;;5037811;28;45544;-68
2022/05/02 11:12:36;;;;;;;;;35.25;31.25;;;;;;;;5037309;28;45552;-68
2022/05/02 11:15:06;;;;;;;;;40.00;32.00;;;;;;;;5037219;28;45483;-68
2022/05/02 11:17:50;;;;;;;;;35.75;30.75;;;;;;;;5037303;28;46412;-69
2022/05/02 11:23:20;;;;;;;;;33.25;30.75;;;;;;;;5037989;28;45572;-69
2022/05/02 11:25:57;;;;;;;;;33.25;27.00;;;;;;;;5037655;28;45392;-69
2022/05/02 11:28:22;;;;;;;;;28.75;25.50;;;;;;;;5037132;28;46032;-68
2022/05/02 11:31:14;;;;;;;;;35.50;30.75;;;;;;;;5037037;28;45574;-68
2022/05/02 11:33:46;;;;;;;;;40.25;34.00;;;;;;;;5037936;28;45461;-68
2022/05/02 11:36:13;;;;;;;;;31.75;30.00;;;;;;;;5037578;28;45278;-68
2022/05/02 11:38:54;;;;;;;;;38.00;32.50;;;;;;;;5037139;28;45555;-68
2022/05/02 11:41:22;;;;;;;;;36.75;32.25;;;;;;;;5037251;28;45512;-68
2022/05/02 11:43:47;;;;;;;;;37.75;31.00;;;;;;;;5037376;28;45291;-68
2022/05/02 11:46:24;;;;;;;;;40.50;34.00;;;;;;;;5037499;28;45390;-68
2022/05/02 11:49:08;;;;;;;;;40.25;32.25;;;;;;;;5037176;28;46273;-68
2022/05/02 11:51:36;;;;;;;;;26.50;22.00;;;;;;;;5037495;28;45252;-68
2022/05/02 11:54:06;;;;;;;;;24.25;23.25;;;;;;;;5037341;28;45596;-68
2022/05/02 11:56:38;;;;;;;;;23.75;22.25;;;;;;;;5037238;28;45177;-68
2022/05/02 11:59:11;;;;;;;;;31.00;29.50;;;;;;;;5037366;28;45503;-68
2022/05/02 12:01:40;;;;;;;;;46.25;38.75;;;;;;;;5037417;28;45422;-68
2022/05/02 12:04:06;;;;;;;;;32.25;30.50;;;;;;;;5037354;28;45533;-68
2022/05/02 12:06:49;;;;;;;;;33.50;29.25;;;;;;;;5037335;28;45339;-68
2022/05/02 12:09:24;;;;;;;;;26.00;24.25;;;;;;;;5036898;28;45424;-68
2022/05/02 12:11:53;;;;;;;;;21.75;20.75;;;;;;;;5037003;28;45504;-68
2022/05/02 12:14:20;;;;;;;;;24.25;23.50;;;;;;;;5036853;28;45564;-68
2022/05/02 12:17:06;;;;;;;;;27.00;24.75;;;;;;;;5037092;28;45508;-69
2022/05/02 12:19:33;;;;;;;;;21.50;19.75;;;;;;;;5036390;28;45472;-68
2022/05/02 12:22:00;;;;;;;;;24.75;23.50;;;;;;;;5035493;28;45505;-69
2022/05/02 12:24:29;;;;;;;;;26.25;22.75;;;;;;;;5037031;28;45476;-69
2022/05/02 12:26:56;;;;;;;;;23.75;19.25;;;;;;;;5036953;28;45480;-69
2022/05/02 12:29:22;;;;;;;;;30.75;30.00;;;;;;;;5036449;28;46103;-69
2022/05/02 12:31:58;;;;;;;;;28.00;25.25;;;;;;;;5036364;28;45841;-69
2022/05/02 12:34:34;;;;;;;;;22.25;20.75;;;;;;;;5034941;28;45583;-69
2022/05/02 12:37:04;;;;;;;;;24.75;24.50;;;;;;;;5036432;28;45455;-69
2022/05/02 12:39:33;;;;;;;;;27.25;24.75;;;;;;;;5036281;28;45478;-69
2022/05/02 12:42:15;;;;;;;;;21.50;19.50;;;;;;;;5036384;28;45488;-69
2022/05/02 12:44:47;;;;;;;;;22.75;21.50;;;;;;;;5039782;28;45562;-69
2022/05/02 12:47:22;;;;;;;;;25.50;24.25;;;;;;;;5040202;28;45410;-69
2022/05/02 12:50:07;;;;;;;;;23.00;22.75;;;;;;;;5039579;28;45552;-69
2022/05/02 12:52:34;;;;;;;;;24.50;21.75;;;;;;;;5039555;28;45165;-69
2022/05/02 12:55:00;;;;;;;;;25.75;25.50;;;;;;;;5039565;28;45398;-69
2022/05/02 13:00:31;;;;;;;;;26.75;24.00;;;;;;;;5039835;28;45358;-69
2022/05/02 13:02:59;;;;;;;;;21.50;21.25;;;;;;;;5039594;28;45295;-69
2022/05/02 13:05:28;;;;;;;;;21.00;19.50;;;;;;;;5039753;28;45322;-69
2022/05/02 13:07:54;;;;;;;;;21.00;20.00;;;;;;;;5039666;28;45401;-69
2022/05/02 13:10:20;;;;;;;;;21.00;20.75;;;;;;;;5039207;28;45294;-69
2022/05/02 13:12:54;;;;;;;;;25.00;23.50;;;;;;;;5039534;28;45487;-69
2022/05/02 13:15:21;;;;;;;;;70.00;52.25;;;;;;;;5039305;28;45427;-69
2022/05/02 13:17:49;;;;;;;;;24.50;23.25;;;;;;;;5038273;28;45614;-69
2022/05/02 13:20:15;;;;;;;;;28.75;25.25;;;;;;;;5038990;28;46167;-69
2022/05/02 13:23:00;;;;;;;;;29.25;25.75;;;;;;;;5039573;28;45329;-69
2022/05/02 13:25:55;;;;;;;;;23.25;22.00;;;;;;;;5039418;28;45421;-69
2022/05/02 13:28:26;;;;;;;;;29.75;26.75;;;;;;;;5054860;28;45547;-69
2022/05/02 13:30:54;;;;;;;;;25.25;23.00;;;;;;;;5039105;28;45415;-69
2022/05/02 13:33:26;;;;;;;;;30.75;26.00;;;;;;;;5038541;28;45359;-69
2022/05/02 13:36:02;;;;;;;;;29.25;28.25;;;;;;;;5039090;28;45449;-69
2022/05/02 13:38:28;;;;;;;;;26.75;26.00;;;;;;;;5039167;28;45340;-70
2022/05/02 13:41:00;;;;;;;;;25.75;24.00;;;;;;;;5038946;28;46020;-70
2022/05/02 13:43:34;;;;;;;;;29.50;25.50;;;;;;;;5038945;28;45418;-68
2022/05/02 13:45:59;;;;;;;;;25.25;25.00;;;;;;;;5039135;28;45511;-69
2022/05/02 13:48:25;;;;;;;;;28.25;26.50;;;;;;;;5039214;28;45336;-69
2022/05/02 13:50:52;;;;;;;;;28.25;26.25;;;;;;;;5038834;28;45427;-68
2022/05/02 13:53:24;;;;;;;;;23.75;22.50;;;;;;;;5038763;28;45391;-69
2022/05/02 13:55:56;;;;;;;;;27.25;25.75;;;;;;;;5038764;28;45362;-69
2022/05/02 13:58:31;;;;;;;;;31.00;29.25;;;;;;;;5034164;28;45468;-66
2022/05/02 14:01:32;;;;;;;;;27.75;25.50;;;;;;;;5023127;28;45817;-67
2022/05/02 14:06:59;;;;;;;;;27.25;25.75;;;;;;;;5039315;28;45421;-66
2022/05/02 14:09:32;;;;;;;;;28.00;25.00;;;;;;;;5037963;28;45396;-66
2022/05/02 14:11:58;;;;;;;;;24.00;23.50;;;;;;;;5036983;28;45702;-67
2022/05/02 14:14:23;;;;;;;;;24.25;23.75;;;;;;;;5037474;28;45385;-67
2022/05/02 14:16:48;;;;;;;;;30.75;25.75;;;;;;;;5037773;28;45441;-67
2022/05/02 14:19:20;;;;;;;;;30.25;27.50;;;;;;;;5037555;28;45435;-67
2022/05/02 14:21:50;;;;;;;;;25.75;23.00;;;;;;;;5037368;28;45531;-68
2022/05/02 14:24:15;;;;;;;;;23.50;20.25;;;;;;;;5037248;28;45504;-68
2022/05/02 14:26:44;;;;;;;;;25.25;24.50;;;;;;;;5033613;28;45516;-70
2022/05/02 14:29:10;;;;;;;;;28.00;26.00;;;;;;;;5036432;28;45525;-67
2022/05/02 14:31:39;;;;;;;;;27.25;24.50;;;;;;;;5037316;28;45481;-68
2022/05/02 14:34:05;;;;;;;;;30.50;26.25;;;;;;;;5036093;28;45277;-68
2022/05/02 14:36:31;;;;;;;;;29.25;24.75;;;;;;;;5037283;28;46064;-68
2022/05/02 14:38:57;;;;;;;;;25.75;25.00;;;;;;;;5037815;28;45540;-68
2022/05/02 14:41:23;;;;;;;;;29.00;25.50;;;;;;;;5037178;28;45964;-69
2022/05/02 14:43:48;;;;;;;;;26.25;24.25;;;;;;;;5037200;28;45402;-68
2022/05/02 14:46:15;;;;;;;;;28.50;25.00;;;;;;;;5037756;28;45671;-68
2022/05/02 14:48:40;;;;;;;;;28.50;27.50;;;;;;;;5037698;28;45398;-68
2022/05/02 14:51:07;;;;;;;;;28.75;27.75;;;;;;;;5037034;28;45302;-68
2022/05/02 14:53:39;;;;;;;;;27.50;26.25;;;;;;;;5036754;28;45492;-67
2022/05/02 14:56:08;;;;;;;;;31.75;29.00;;;;;;;;5036685;28;45516;-67
2022/05/02 14:58:37;;;;;;;;;28.00;24.50;;;;;;;;5037071;28;45367;-67
2022/05/02 15:01:06;;;;;;;;;30.25;27.50;;;;;;;;5036894;28;45753;-68
2022/05/02 15:03:33;;;;;;;;;36.75;32.00;;;;;;;;5036938;28;45334;-67
2022/05/02 15:06:03;;;;;;;;;34.25;32.25;;;;;;;;5036345;28;45429;-67
2022/05/02 15:08:29;;;;;;;;;40.25;32.50;;;;;;;;5036736;28;45271;-70
2022/05/02 15:10:54;;;;;;;;;30.50;28.25;;;;;;;;5036606;28;46218;-69
2022/05/02 15:13:19;;;;;;;;;28.75;27.00;;;;;;;;5035779;28;45567;-69